sensor_id;sensor_type;location;lat;lon;timestamp;P1;durP1;ratioP1;P2;durP2;ratioP2
52188;SDS011;38162;45.926;13.608;2023-06-14T00:01:43;8.80;;;6.18;;
52188;SDS011;38162;45.926;13.608;2023-06-14T00:04:13;6.70;;;5.90;;
52188;SDS011;38162;45.926;13.608;2023-06-14T00:06:42;7.10;;;5.85;;
52188;SDS011;38162;45.926;13.608;2023-06-14T00:09:10;10.57;;;5.93;;
52188;SDS011;38162;45.926;13.608;2023-06-14T00:11:37;8.93;;;6.28;;
52188;SDS011;38162;45.926;13.608;2023-06-14T00:14:04;5.82;;;5.15;;
52188;SDS011;38162;45.926;13.608;2023-06-14T00:16:30;11.15;;;5.30;;
52188;SDS011;38162;45.926;13.608;2023-06-14T00:18:58;7.40;;;5.32;;
52188;SDS011;38162;45.926;13.608;2023-06-14T00:21:23;9.35;;;4.97;;
52188;SDS011;38162;45.926;13.608;2023-06-14T00:23:49;7.85;;;4.45;;
52188;SDS011;38162;45.926;13.608;2023-06-14T00:26:15;6.55;;;4.93;;
52188;SDS011;38162;45.926;13.608;2023-06-14T00:28:41;12.13;;;4.70;;
52188;SDS011;38162;45.926;13.608;2023-06-14T00:31:06;10.13;;;4.90;;
52188;SDS011;38162;45.926;13.608;2023-06-14T00:33:32;8.90;;;4.25;;
52188;SDS011;38162;45.926;13.608;2023-06-14T00:35:58;9.90;;;4.60;;
52188;SDS011;38162;45.926;13.608;2023-06-14T00:38:24;7.28;;;4.40;;
52188;SDS011;38162;45.926;13.608;2023-06-14T00:40:49;8.18;;;4.63;;
52188;SDS011;38162;45.926;13.608;2023-06-14T00:43:15;10.75;;;4.22;;
52188;SDS011;38162;45.926;13.608;2023-06-14T00:45:41;7.10;;;4.45;;
52188;SDS011;38162;45.926;13.608;2023-06-14T00:48:07;7.40;;;4.18;;
52188;SDS011;38162;45.926;13.608;2023-06-14T00:50:34;5.90;;;4.40;;
52188;SDS011;38162;45.926;13.608;2023-06-14T00:53:01;10.32;;;4.53;;
52188;SDS011;38162;45.926;13.608;2023-06-14T00:55:28;9.13;;;4.53;;
52188;SDS011;38162;45.926;13.608;2023-06-14T00:57:54;7.45;;;4.13;;
52188;SDS011;38162;45.926;13.608;2023-06-14T01:00:21;8.75;;;4.40;;
52188;SDS011;38162;45.926;13.608;2023-06-14T01:02:47;7.03;;;4.20;;
52188;SDS011;38162;45.926;13.608;2023-06-14T01:05:14;7.70;;;4.60;;
52188;SDS011;38162;45.926;13.608;2023-06-14T01:10:40;7.10;;;4.40;;
52188;SDS011;38162;45.926;13.608;2023-06-14T01:15:51;5.70;;;4.28;;
52188;SDS011;38162;45.926;13.608;2023-06-14T01:18:17;4.65;;;4.18;;
52188;SDS011;38162;45.926;13.608;2023-06-14T01:20:46;8.60;;;4.30;;
52188;SDS011;38162;45.926;13.608;2023-06-14T01:23:16;8.80;;;3.88;;
52188;SDS011;38162;45.926;13.608;2023-06-14T01:25:42;6.45;;;4.07;;
52188;SDS011;38162;45.926;13.608;2023-06-14T01:28:09;7.10;;;3.53;;
52188;SDS011;38162;45.926;13.608;2023-06-14T01:30:38;9.23;;;4.22;;
52188;SDS011;38162;45.926;13.608;2023-06-14T01:33:07;7.78;;;3.97;;
52188;SDS011;38162;45.926;13.608;2023-06-14T01:35:34;5.93;;;4.03;;
52188;SDS011;38162;45.926;13.608;2023-06-14T01:38:00;9.05;;;4.47;;
52188;SDS011;38162;45.926;13.608;2023-06-14T01:40:28;8.35;;;4.38;;
52188;SDS011;38162;45.926;13.608;2023-06-14T01:42:55;5.32;;;4.22;;
52188;SDS011;38162;45.926;13.608;2023-06-14T01:45:21;7.72;;;4.35;;
52188;SDS011;38162;45.926;13.608;2023-06-14T01:47:47;13.45;;;4.25;;
52188;SDS011;38162;45.926;13.608;2023-06-14T01:50:13;5.70;;;3.80;;
52188;SDS011;38162;45.926;13.608;2023-06-14T01:52:39;5.20;;;4.05;;
52188;SDS011;38162;45.926;13.608;2023-06-14T01:55:05;9.02;;;3.90;;
52188;SDS011;38162;45.926;13.608;2023-06-14T01:57:31;9.35;;;3.88;;
52188;SDS011;38162;45.926;13.608;2023-06-14T01:59:57;9.52;;;4.00;;
52188;SDS011;38162;45.926;13.608;2023-06-14T02:02:22;4.63;;;3.35;;
52188;SDS011;38162;45.926;13.608;2023-06-14T02:04:48;4.35;;;3.95;;
52188;SDS011;38162;45.926;13.608;2023-06-14T02:07:14;10.55;;;4.03;;
52188;SDS011;38162;45.926;13.608;2023-06-14T02:09:40;7.78;;;4.00;;
52188;SDS011;38162;45.926;13.608;2023-06-14T02:12:06;9.52;;;4.10;;
52188;SDS011;38162;45.926;13.608;2023-06-14T02:14:32;6.53;;;3.72;;
52188;SDS011;38162;45.926;13.608;2023-06-14T02:16:58;8.18;;;4.18;;
52188;SDS011;38162;45.926;13.608;2023-06-14T02:19:26;5.78;;;3.92;;
52188;SDS011;38162;45.926;13.608;2023-06-14T02:21:52;6.78;;;4.18;;
52188;SDS011;38162;45.926;13.608;2023-06-14T02:24:18;7.03;;;3.92;;
52188;SDS011;38162;45.926;13.608;2023-06-14T02:26:43;11.38;;;3.92;;
52188;SDS011;38162;45.926;13.608;2023-06-14T02:29:09;6.30;;;4.05;;
52188;SDS011;38162;45.926;13.608;2023-06-14T02:31:37;7.95;;;3.72;;
52188;SDS011;38162;45.926;13.608;2023-06-14T02:34:03;6.80;;;4.00;;
52188;SDS011;38162;45.926;13.608;2023-06-14T02:36:28;7.82;;;3.60;;
52188;SDS011;38162;45.926;13.608;2023-06-14T02:38:55;7.57;;;3.28;;
52188;SDS011;38162;45.926;13.608;2023-06-14T02:41:23;7.47;;;3.50;;
52188;SDS011;38162;45.926;13.608;2023-06-14T02:43:49;3.63;;;3.20;;
52188;SDS011;38162;45.926;13.608;2023-06-14T02:46:15;8.77;;;3.42;;
52188;SDS011;38162;45.926;13.608;2023-06-14T02:48:40;5.25;;;3.10;;
52188;SDS011;38162;45.926;13.608;2023-06-14T02:51:06;7.10;;;3.58;;
52188;SDS011;38162;45.926;13.608;2023-06-14T02:53:33;7.13;;;3.30;;
52188;SDS011;38162;45.926;13.608;2023-06-14T02:55:59;9.13;;;3.40;;
52188;SDS011;38162;45.926;13.608;2023-06-14T02:58:26;7.03;;;3.53;;
52188;SDS011;38162;45.926;13.608;2023-06-14T03:00:52;5.20;;;3.53;;
52188;SDS011;38162;45.926;13.608;2023-06-14T03:03:18;7.50;;;3.88;;
52188;SDS011;38162;45.926;13.608;2023-06-14T03:05:46;6.35;;;2.90;;
52188;SDS011;38162;45.926;13.608;2023-06-14T03:08:14;7.30;;;3.60;;
52188;SDS011;38162;45.926;13.608;2023-06-14T03:10:48;4.70;;;3.13;;
52188;SDS011;38162;45.926;13.608;2023-06-14T03:13:14;6.22;;;3.47;;
52188;SDS011;38162;45.926;13.608;2023-06-14T03:15:43;6.22;;;3.22;;
52188;SDS011;38162;45.926;13.608;2023-06-14T03:18:10;7.25;;;3.88;;
52188;SDS011;38162;45.926;13.608;2023-06-14T03:20:37;5.43;;;3.63;;
52188;SDS011;38162;45.926;13.608;2023-06-14T03:23:03;5.07;;;3.60;;
52188;SDS011;38162;45.926;13.608;2023-06-14T03:25:30;5.70;;;3.88;;
52188;SDS011;38162;45.926;13.608;2023-06-14T03:27:58;5.45;;;3.22;;
52188;SDS011;38162;45.926;13.608;2023-06-14T03:30:23;7.70;;;3.30;;
52188;SDS011;38162;45.926;13.608;2023-06-14T03:32:49;5.72;;;3.65;;
52188;SDS011;38162;45.926;13.608;2023-06-14T03:35:17;6.88;;;3.47;;
52188;SDS011;38162;45.926;13.608;2023-06-14T03:37:44;4.53;;;3.00;;
52188;SDS011;38162;45.926;13.608;2023-06-14T03:40:11;5.30;;;3.10;;
52188;SDS011;38162;45.926;13.608;2023-06-14T03:42:38;5.05;;;3.20;;
52188;SDS011;38162;45.926;13.608;2023-06-14T03:45:04;6.90;;;3.35;;
52188;SDS011;38162;45.926;13.608;2023-06-14T03:47:33;6.60;;;3.38;;
52188;SDS011;38162;45.926;13.608;2023-06-14T03:49:59;7.55;;;3.30;;
52188;SDS011;38162;45.926;13.608;2023-06-14T03:52:26;4.93;;;3.15;;
52188;SDS011;38162;45.926;13.608;2023-06-14T03:54:52;6.35;;;3.53;;
52188;SDS011;38162;45.926;13.608;2023-06-14T03:57:18;6.18;;;3.42;;
52188;SDS011;38162;45.926;13.608;2023-06-14T03:59:44;6.07;;;3.00;;
52188;SDS011;38162;45.926;13.608;2023-06-14T04:02:09;6.63;;;3.45;;
52188;SDS011;38162;45.926;13.608;2023-06-14T04:04:35;12.02;;;3.78;;
52188;SDS011;38162;45.926;13.608;2023-06-14T04:07:01;8.32;;;3.40;;
52188;SDS011;38162;45.926;13.608;2023-06-14T04:09:28;13.48;;;3.40;;
52188;SDS011;38162;45.926;13.608;2023-06-14T04:11:57;3.75;;;3.10;;
52188;SDS011;38162;45.926;13.608;2023-06-14T04:14:22;6.53;;;3.55;;
52188;SDS011;38162;45.926;13.608;2023-06-14T04:16:48;9.90;;;3.30;;
52188;SDS011;38162;45.926;13.608;2023-06-14T04:19:15;6.45;;;3.70;;
52188;SDS011;38162;45.926;13.608;2023-06-14T04:21:41;5.13;;;3.40;;
52188;SDS011;38162;45.926;13.608;2023-06-14T04:24:08;7.88;;;3.42;;
52188;SDS011;38162;45.926;13.608;2023-06-14T04:26:39;8.18;;;3.30;;
52188;SDS011;38162;45.926;13.608;2023-06-14T04:29:06;8.52;;;3.42;;
52188;SDS011;38162;45.926;13.608;2023-06-14T04:31:32;10.07;;;3.30;;
52188;SDS011;38162;45.926;13.608;2023-06-14T04:33:58;9.27;;;3.40;;
52188;SDS011;38162;45.926;13.608;2023-06-14T04:36:25;8.05;;;3.80;;
52188;SDS011;38162;45.926;13.608;2023-06-14T04:38:53;6.22;;;3.95;;
52188;SDS011;38162;45.926;13.608;2023-06-14T04:41:20;4.93;;;2.95;;
52188;SDS011;38162;45.926;13.608;2023-06-14T04:43:48;8.02;;;3.63;;
52188;SDS011;38162;45.926;13.608;2023-06-14T04:46:14;6.22;;;3.60;;
52188;SDS011;38162;45.926;13.608;2023-06-14T04:48:40;5.28;;;3.40;;
52188;SDS011;38162;45.926;13.608;2023-06-14T04:51:10;4.63;;;3.10;;
52188;SDS011;38162;45.926;13.608;2023-06-14T04:53:38;4.25;;;3.15;;
52188;SDS011;38162;45.926;13.608;2023-06-14T04:56:03;7.22;;;3.63;;
52188;SDS011;38162;45.926;13.608;2023-06-14T04:58:29;11.50;;;3.35;;
52188;SDS011;38162;45.926;13.608;2023-06-14T05:00:55;6.07;;;3.15;;
52188;SDS011;38162;45.926;13.608;2023-06-14T05:03:24;10.18;;;3.38;;
52188;SDS011;38162;45.926;13.608;2023-06-14T05:05:51;5.28;;;3.33;;
52188;SDS011;38162;45.926;13.608;2023-06-14T05:08:18;10.73;;;3.28;;
52188;SDS011;38162;45.926;13.608;2023-06-14T05:10:48;5.78;;;3.00;;
52188;SDS011;38162;45.926;13.608;2023-06-14T05:13:14;7.53;;;3.17;;
52188;SDS011;38162;45.926;13.608;2023-06-14T05:15:40;7.72;;;3.03;;
52188;SDS011;38162;45.926;13.608;2023-06-14T05:18:06;6.57;;;3.03;;
52188;SDS011;38162;45.926;13.608;2023-06-14T05:20:34;4.85;;;3.15;;
52188;SDS011;38162;45.926;13.608;2023-06-14T05:23:02;5.70;;;2.95;;
52188;SDS011;38162;45.926;13.608;2023-06-14T05:25:27;6.20;;;3.05;;
52188;SDS011;38162;45.926;13.608;2023-06-14T05:27:53;5.82;;;3.20;;
52188;SDS011;38162;45.926;13.608;2023-06-14T05:30:19;8.50;;;3.15;;
52188;SDS011;38162;45.926;13.608;2023-06-14T05:32:45;5.47;;;2.92;;
52188;SDS011;38162;45.926;13.608;2023-06-14T05:35:11;5.40;;;3.00;;
52188;SDS011;38162;45.926;13.608;2023-06-14T05:37:37;6.25;;;3.13;;
52188;SDS011;38162;45.926;13.608;2023-06-14T05:40:03;3.85;;;2.88;;
52188;SDS011;38162;45.926;13.608;2023-06-14T05:42:31;4.25;;;2.90;;
52188;SDS011;38162;45.926;13.608;2023-06-14T05:44:57;8.63;;;3.10;;
52188;SDS011;38162;45.926;13.608;2023-06-14T05:47:23;4.85;;;3.30;;
52188;SDS011;38162;45.926;13.608;2023-06-14T05:49:48;9.43;;;3.00;;
52188;SDS011;38162;45.926;13.608;2023-06-14T05:52:14;6.75;;;3.25;;
52188;SDS011;38162;45.926;13.608;2023-06-14T05:54:40;5.78;;;3.50;;
52188;SDS011;38162;45.926;13.608;2023-06-14T05:57:06;7.03;;;2.88;;
52188;SDS011;38162;45.926;13.608;2023-06-14T05:59:32;6.75;;;2.97;;
52188;SDS011;38162;45.926;13.608;2023-06-14T06:01:58;5.65;;;2.95;;
52188;SDS011;38162;45.926;13.608;2023-06-14T06:04:23;6.90;;;3.47;;
52188;SDS011;38162;45.926;13.608;2023-06-14T06:06:49;4.72;;;3.08;;
52188;SDS011;38162;45.926;13.608;2023-06-14T06:09:15;10.45;;;3.50;;
52188;SDS011;38162;45.926;13.608;2023-06-14T06:11:40;5.50;;;3.47;;
52188;SDS011;38162;45.926;13.608;2023-06-14T06:14:06;7.05;;;3.10;;
52188;SDS011;38162;45.926;13.608;2023-06-14T06:16:32;5.07;;;3.00;;
52188;SDS011;38162;45.926;13.608;2023-06-14T06:18:58;15.68;;;3.70;;
52188;SDS011;38162;45.926;13.608;2023-06-14T06:21:24;7.82;;;3.10;;
52188;SDS011;38162;45.926;13.608;2023-06-14T06:23:50;5.70;;;3.17;;
52188;SDS011;38162;45.926;13.608;2023-06-14T06:26:15;3.67;;;3.00;;
52188;SDS011;38162;45.926;13.608;2023-06-14T06:28:41;8.63;;;3.97;;
52188;SDS011;38162;45.926;13.608;2023-06-14T06:31:07;8.07;;;3.20;;
52188;SDS011;38162;45.926;13.608;2023-06-14T06:33:33;7.00;;;2.70;;
52188;SDS011;38162;45.926;13.608;2023-06-14T06:35:58;4.30;;;3.13;;
52188;SDS011;38162;45.926;13.608;2023-06-14T06:38:24;7.30;;;3.55;;
52188;SDS011;38162;45.926;13.608;2023-06-14T06:40:50;5.72;;;2.80;;
52188;SDS011;38162;45.926;13.608;2023-06-14T06:43:15;8.30;;;2.95;;
52188;SDS011;38162;45.926;13.608;2023-06-14T06:45:42;6.35;;;3.13;;
52188;SDS011;38162;45.926;13.608;2023-06-14T06:48:08;5.95;;;3.08;;
52188;SDS011;38162;45.926;13.608;2023-06-14T06:50:37;8.70;;;2.53;;
52188;SDS011;38162;45.926;13.608;2023-06-14T06:53:03;4.68;;;3.33;;
52188;SDS011;38162;45.926;13.608;2023-06-14T06:55:29;6.72;;;3.15;;
52188;SDS011;38162;45.926;13.608;2023-06-14T06:57:55;4.43;;;3.10;;
52188;SDS011;38162;45.926;13.608;2023-06-14T07:00:21;4.72;;;3.30;;
52188;SDS011;38162;45.926;13.608;2023-06-14T07:02:47;6.38;;;3.25;;
52188;SDS011;38162;45.926;13.608;2023-06-14T07:05:12;7.28;;;3.10;;
52188;SDS011;38162;45.926;13.608;2023-06-14T07:07:38;10.10;;;4.13;;
52188;SDS011;38162;45.926;13.608;2023-06-14T07:10:04;8.98;;;3.35;;
52188;SDS011;38162;45.926;13.608;2023-06-14T07:12:30;6.57;;;3.08;;
52188;SDS011;38162;45.926;13.608;2023-06-14T07:14:58;6.97;;;3.30;;
52188;SDS011;38162;45.926;13.608;2023-06-14T07:17:25;5.22;;;2.85;;
52188;SDS011;38162;45.926;13.608;2023-06-14T07:19:51;9.90;;;3.17;;
52188;SDS011;38162;45.926;13.608;2023-06-14T07:22:18;6.88;;;3.55;;
52188;SDS011;38162;45.926;13.608;2023-06-14T07:24:44;4.10;;;3.13;;
52188;SDS011;38162;45.926;13.608;2023-06-14T07:27:09;9.43;;;3.63;;
52188;SDS011;38162;45.926;13.608;2023-06-14T07:29:36;7.50;;;3.45;;
52188;SDS011;38162;45.926;13.608;2023-06-14T07:32:02;6.57;;;3.00;;
52188;SDS011;38162;45.926;13.608;2023-06-14T07:34:28;9.30;;;3.17;;
52188;SDS011;38162;45.926;13.608;2023-06-14T07:36:53;7.60;;;3.38;;
52188;SDS011;38162;45.926;13.608;2023-06-14T07:39:19;5.55;;;3.58;;
52188;SDS011;38162;45.926;13.608;2023-06-14T07:41:45;5.22;;;3.28;;
52188;SDS011;38162;45.926;13.608;2023-06-14T07:44:10;6.85;;;3.10;;
52188;SDS011;38162;45.926;13.608;2023-06-14T07:46:37;6.55;;;3.30;;
52188;SDS011;38162;45.926;13.608;2023-06-14T07:49:03;12.25;;;2.90;;
52188;SDS011;38162;45.926;13.608;2023-06-14T07:51:29;4.15;;;3.45;;
52188;SDS011;38162;45.926;13.608;2023-06-14T07:53:54;8.60;;;3.38;;
52188;SDS011;38162;45.926;13.608;2023-06-14T07:56:21;6.13;;;3.42;;
52188;SDS011;38162;45.926;13.608;2023-06-14T07:58:48;8.23;;;3.13;;
52188;SDS011;38162;45.926;13.608;2023-06-14T08:01:13;12.18;;;3.53;;
52188;SDS011;38162;45.926;13.608;2023-06-14T08:03:40;9.55;;;4.32;;
52188;SDS011;38162;45.926;13.608;2023-06-14T08:06:06;10.02;;;3.63;;
52188;SDS011;38162;45.926;13.608;2023-06-14T08:08:32;4.18;;;3.10;;
52188;SDS011;38162;45.926;13.608;2023-06-14T08:10:58;4.93;;;3.53;;
52188;SDS011;38162;45.926;13.608;2023-06-14T08:13:24;5.10;;;3.20;;
52188;SDS011;38162;45.926;13.608;2023-06-14T08:15:50;17.85;;;3.70;;
52188;SDS011;38162;45.926;13.608;2023-06-14T08:18:16;6.90;;;3.05;;
52188;SDS011;38162;45.926;13.608;2023-06-14T08:20:41;5.70;;;3.17;;
52188;SDS011;38162;45.926;13.608;2023-06-14T08:23:07;4.72;;;3.22;;
52188;SDS011;38162;45.926;13.608;2023-06-14T08:25:34;7.45;;;3.47;;
52188;SDS011;38162;45.926;13.608;2023-06-14T08:28:00;5.97;;;3.20;;
52188;SDS011;38162;45.926;13.608;2023-06-14T08:30:26;9.02;;;3.50;;
52188;SDS011;38162;45.926;13.608;2023-06-14T08:32:52;9.32;;;4.38;;
52188;SDS011;38162;45.926;13.608;2023-06-14T08:35:20;5.72;;;3.33;;
52188;SDS011;38162;45.926;13.608;2023-06-14T08:37:46;6.10;;;4.22;;
52188;SDS011;38162;45.926;13.608;2023-06-14T08:40:19;8.10;;;3.45;;
52188;SDS011;38162;45.926;13.608;2023-06-14T08:42:52;11.02;;;3.60;;
52188;SDS011;38162;45.926;13.608;2023-06-14T08:45:19;6.28;;;3.30;;
52188;SDS011;38162;45.926;13.608;2023-06-14T08:47:46;4.22;;;3.33;;
52188;SDS011;38162;45.926;13.608;2023-06-14T08:50:20;6.22;;;3.60;;
52188;SDS011;38162;45.926;13.608;2023-06-14T08:52:48;8.48;;;3.92;;
52188;SDS011;38162;45.926;13.608;2023-06-14T08:55:18;10.35;;;3.35;;
52188;SDS011;38162;45.926;13.608;2023-06-14T08:57:45;11.68;;;3.95;;
52188;SDS011;38162;45.926;13.608;2023-06-14T09:00:13;7.82;;;4.00;;
52188;SDS011;38162;45.926;13.608;2023-06-14T09:02:39;6.55;;;3.53;;
52188;SDS011;38162;45.926;13.608;2023-06-14T09:05:11;6.18;;;3.22;;
52188;SDS011;38162;45.926;13.608;2023-06-14T09:07:39;3.97;;;3.28;;
52188;SDS011;38162;45.926;13.608;2023-06-14T09:10:12;6.80;;;3.10;;
52188;SDS011;38162;45.926;13.608;2023-06-14T09:12:39;6.13;;;3.13;;
52188;SDS011;38162;45.926;13.608;2023-06-14T09:15:05;4.32;;;3.38;;
52188;SDS011;38162;45.926;13.608;2023-06-14T09:17:33;5.13;;;3.17;;
52188;SDS011;38162;45.926;13.608;2023-06-14T09:20:03;6.85;;;3.58;;
52188;SDS011;38162;45.926;13.608;2023-06-14T09:22:38;6.15;;;3.25;;
52188;SDS011;38162;45.926;13.608;2023-06-14T09:25:04;5.80;;;3.42;;
52188;SDS011;38162;45.926;13.608;2023-06-14T09:27:31;6.00;;;3.30;;
52188;SDS011;38162;45.926;13.608;2023-06-14T09:29:57;10.80;;;3.17;;
52188;SDS011;38162;45.926;13.608;2023-06-14T09:32:23;3.83;;;2.95;;
52188;SDS011;38162;45.926;13.608;2023-06-14T09:34:49;5.50;;;3.40;;
52188;SDS011;38162;45.926;13.608;2023-06-14T09:37:36;10.13;;;3.22;;
52188;SDS011;38162;45.926;13.608;2023-06-14T09:40:03;4.35;;;3.15;;
52188;SDS011;38162;45.926;13.608;2023-06-14T09:42:29;3.97;;;3.10;;
52188;SDS011;38162;45.926;13.608;2023-06-14T09:44:56;5.63;;;3.33;;
52188;SDS011;38162;45.926;13.608;2023-06-14T09:47:22;8.27;;;3.08;;
52188;SDS011;38162;45.926;13.608;2023-06-14T09:49:48;6.05;;;3.40;;
52188;SDS011;38162;45.926;13.608;2023-06-14T09:52:16;4.75;;;3.20;;
52188;SDS011;38162;45.926;13.608;2023-06-14T09:54:44;7.40;;;2.80;;
52188;SDS011;38162;45.926;13.608;2023-06-14T09:57:13;5.00;;;3.20;;
52188;SDS011;38162;45.926;13.608;2023-06-14T09:59:44;5.50;;;2.95;;
52188;SDS011;38162;45.926;13.608;2023-06-14T10:02:22;4.75;;;2.90;;
52188;SDS011;38162;45.926;13.608;2023-06-14T10:04:50;12.27;;;3.20;;
52188;SDS011;38162;45.926;13.608;2023-06-14T10:07:23;8.77;;;2.78;;
52188;SDS011;38162;45.926;13.608;2023-06-14T10:09:52;8.18;;;3.05;;
52188;SDS011;38162;45.926;13.608;2023-06-14T10:12:18;4.80;;;3.25;;
52188;SDS011;38162;45.926;13.608;2023-06-14T10:14:47;9.73;;;3.45;;
52188;SDS011;38162;45.926;13.608;2023-06-14T10:17:17;6.28;;;2.92;;
52188;SDS011;38162;45.926;13.608;2023-06-14T10:19:48;4.20;;;2.67;;
52188;SDS011;38162;45.926;13.608;2023-06-14T10:24:50;6.90;;;3.17;;
52188;SDS011;38162;45.926;13.608;2023-06-14T10:27:15;3.00;;;2.60;;
52188;SDS011;38162;45.926;13.608;2023-06-14T10:32:23;3.78;;;2.90;;
52188;SDS011;38162;45.926;13.608;2023-06-14T10:35:05;7.78;;;2.90;;
52188;SDS011;38162;45.926;13.608;2023-06-14T10:37:32;5.25;;;3.03;;
52188;SDS011;38162;45.926;13.608;2023-06-14T10:39:58;6.20;;;2.80;;
52188;SDS011;38162;45.926;13.608;2023-06-14T10:42:27;9.02;;;2.88;;
52188;SDS011;38162;45.926;13.608;2023-06-14T10:44:56;3.30;;;2.92;;
52188;SDS011;38162;45.926;13.608;2023-06-14T10:47:26;9.30;;;2.92;;
52188;SDS011;38162;45.926;13.608;2023-06-14T10:50:05;5.75;;;2.25;;
52188;SDS011;38162;45.926;13.608;2023-06-14T10:52:42;6.68;;;2.90;;
52188;SDS011;38162;45.926;13.608;2023-06-14T10:55:09;4.28;;;2.58;;
52188;SDS011;38162;45.926;13.608;2023-06-14T10:57:53;7.30;;;2.90;;
52188;SDS011;38162;45.926;13.608;2023-06-14T11:00:24;10.35;;;2.90;;
52188;SDS011;38162;45.926;13.608;2023-06-14T11:05:41;8.30;;;3.20;;
52188;SDS011;38162;45.926;13.608;2023-06-14T11:11:07;4.28;;;3.17;;
52188;SDS011;38162;45.926;13.608;2023-06-14T11:13:34;5.53;;;2.90;;
52188;SDS011;38162;45.926;13.608;2023-06-14T11:16:03;4.57;;;3.08;;
52188;SDS011;38162;45.926;13.608;2023-06-14T11:18:39;5.63;;;3.10;;
52188;SDS011;38162;45.926;13.608;2023-06-14T11:21:04;6.53;;;2.90;;
52188;SDS011;38162;45.926;13.608;2023-06-14T11:23:31;5.65;;;2.80;;
52188;SDS011;38162;45.926;13.608;2023-06-14T11:25:56;6.82;;;2.92;;
52188;SDS011;38162;45.926;13.608;2023-06-14T11:28:22;5.90;;;3.40;;
52188;SDS011;38162;45.926;13.608;2023-06-14T11:30:49;5.38;;;2.85;;
52188;SDS011;38162;45.926;13.608;2023-06-14T11:33:24;10.70;;;3.50;;
52188;SDS011;38162;45.926;13.608;2023-06-14T11:35:50;8.38;;;3.05;;
52188;SDS011;38162;45.926;13.608;2023-06-14T11:38:17;5.18;;;2.95;;
52188;SDS011;38162;45.926;13.608;2023-06-14T11:40:43;5.97;;;3.00;;
52188;SDS011;38162;45.926;13.608;2023-06-14T11:43:08;3.67;;;2.63;;
52188;SDS011;38162;45.926;13.608;2023-06-14T11:45:35;4.03;;;3.00;;
52188;SDS011;38162;45.926;13.608;2023-06-14T11:48:00;4.35;;;3.03;;
52188;SDS011;38162;45.926;13.608;2023-06-14T11:50:27;6.90;;;2.97;;
52188;SDS011;38162;45.926;13.608;2023-06-14T11:52:54;5.72;;;3.17;;
52188;SDS011;38162;45.926;13.608;2023-06-14T11:55:25;4.57;;;2.70;;
52188;SDS011;38162;45.926;13.608;2023-06-14T11:57:51;6.05;;;2.70;;
52188;SDS011;38162;45.926;13.608;2023-06-14T12:00:19;3.20;;;2.70;;
52188;SDS011;38162;45.926;13.608;2023-06-14T12:02:54;4.72;;;2.85;;
52188;SDS011;38162;45.926;13.608;2023-06-14T12:05:23;4.82;;;2.72;;
52188;SDS011;38162;45.926;13.608;2023-06-14T12:07:57;7.28;;;2.95;;
52188;SDS011;38162;45.926;13.608;2023-06-14T12:10:24;5.75;;;2.80;;
52188;SDS011;38162;45.926;13.608;2023-06-14T12:12:51;4.68;;;2.97;;
52188;SDS011;38162;45.926;13.608;2023-06-14T12:15:22;5.85;;;3.20;;
52188;SDS011;38162;45.926;13.608;2023-06-14T12:17:47;6.00;;;2.78;;
52188;SDS011;38162;45.926;13.608;2023-06-14T12:20:13;6.60;;;2.75;;
52188;SDS011;38162;45.926;13.608;2023-06-14T12:22:51;5.50;;;2.70;;
52188;SDS011;38162;45.926;13.608;2023-06-14T12:25:27;7.97;;;2.85;;
52188;SDS011;38162;45.926;13.608;2023-06-14T12:27:56;3.65;;;2.80;;
52188;SDS011;38162;45.926;13.608;2023-06-14T12:30:22;8.38;;;2.75;;
52188;SDS011;38162;45.926;13.608;2023-06-14T12:32:48;4.47;;;2.83;;
52188;SDS011;38162;45.926;13.608;2023-06-14T12:35:14;6.63;;;2.85;;
52188;SDS011;38162;45.926;13.608;2023-06-14T12:37:40;6.10;;;2.85;;
52188;SDS011;38162;45.926;13.608;2023-06-14T12:40:06;4.18;;;2.80;;
52188;SDS011;38162;45.926;13.608;2023-06-14T12:42:32;5.53;;;2.90;;
52188;SDS011;38162;45.926;13.608;2023-06-14T12:44:59;3.20;;;2.90;;
52188;SDS011;38162;45.926;13.608;2023-06-14T12:47:24;8.35;;;2.70;;
52188;SDS011;38162;45.926;13.608;2023-06-14T12:49:50;4.72;;;2.78;;
52188;SDS011;38162;45.926;13.608;2023-06-14T12:52:16;6.53;;;3.05;;
52188;SDS011;38162;45.926;13.608;2023-06-14T12:54:42;5.45;;;3.05;;
52188;SDS011;38162;45.926;13.608;2023-06-14T12:57:07;6.10;;;2.90;;
52188;SDS011;38162;45.926;13.608;2023-06-14T12:59:34;4.43;;;3.13;;
52188;SDS011;38162;45.926;13.608;2023-06-14T13:04:56;7.68;;;3.00;;
52188;SDS011;38162;45.926;13.608;2023-06-14T13:07:24;6.30;;;2.90;;
52188;SDS011;38162;45.926;13.608;2023-06-14T13:09:50;3.67;;;2.90;;
52188;SDS011;38162;45.926;13.608;2023-06-14T13:12:15;5.90;;;2.60;;
52188;SDS011;38162;45.926;13.608;2023-06-14T13:14:41;4.47;;;2.55;;
52188;SDS011;38162;45.926;13.608;2023-06-14T13:17:10;3.83;;;2.60;;
52188;SDS011;38162;45.926;13.608;2023-06-14T13:19:36;6.47;;;3.00;;
52188;SDS011;38162;45.926;13.608;2023-06-14T13:22:02;4.30;;;2.72;;
52188;SDS011;38162;45.926;13.608;2023-06-14T13:24:27;4.43;;;3.00;;
52188;SDS011;38162;45.926;13.608;2023-06-14T13:26:54;5.38;;;2.58;;
52188;SDS011;38162;45.926;13.608;2023-06-14T13:29:20;4.72;;;2.85;;
52188;SDS011;38162;45.926;13.608;2023-06-14T13:31:47;7.22;;;2.95;;
52188;SDS011;38162;45.926;13.608;2023-06-14T13:34:13;7.53;;;3.35;;
52188;SDS011;38162;45.926;13.608;2023-06-14T13:36:38;5.35;;;2.85;;
52188;SDS011;38162;45.926;13.608;2023-06-14T13:39:04;4.78;;;2.83;;
52188;SDS011;38162;45.926;13.608;2023-06-14T13:41:30;4.05;;;2.80;;
52188;SDS011;38162;45.926;13.608;2023-06-14T13:43:58;4.53;;;2.83;;
52188;SDS011;38162;45.926;13.608;2023-06-14T13:46:25;9.93;;;3.00;;
52188;SDS011;38162;45.926;13.608;2023-06-14T13:48:51;5.57;;;2.90;;
52188;SDS011;38162;45.926;13.608;2023-06-14T13:51:17;6.75;;;3.10;;
52188;SDS011;38162;45.926;13.608;2023-06-14T13:53:53;3.78;;;2.80;;
52188;SDS011;38162;45.926;13.608;2023-06-14T13:56:20;4.35;;;2.90;;
52188;SDS011;38162;45.926;13.608;2023-06-14T13:58:47;6.85;;;2.75;;
52188;SDS011;38162;45.926;13.608;2023-06-14T14:01:13;4.82;;;2.97;;
52188;SDS011;38162;45.926;13.608;2023-06-14T14:03:39;5.70;;;2.60;;
52188;SDS011;38162;45.926;13.608;2023-06-14T14:06:04;4.57;;;2.65;;
52188;SDS011;38162;45.926;13.608;2023-06-14T14:08:32;6.97;;;2.92;;
52188;SDS011;38162;45.926;13.608;2023-06-14T14:10:58;5.53;;;3.05;;
52188;SDS011;38162;45.926;13.608;2023-06-14T14:13:23;3.85;;;2.95;;
52188;SDS011;38162;45.926;13.608;2023-06-14T14:15:50;4.10;;;3.00;;
52188;SDS011;38162;45.926;13.608;2023-06-14T14:18:15;7.07;;;2.97;;
52188;SDS011;38162;45.926;13.608;2023-06-14T14:20:41;5.85;;;3.20;;
52188;SDS011;38162;45.926;13.608;2023-06-14T14:23:07;3.88;;;2.75;;
52188;SDS011;38162;45.926;13.608;2023-06-14T14:25:32;4.15;;;3.05;;
52188;SDS011;38162;45.926;13.608;2023-06-14T14:27:58;5.35;;;3.30;;
52188;SDS011;38162;45.926;13.608;2023-06-14T14:30:24;9.40;;;3.33;;
52188;SDS011;38162;45.926;13.608;2023-06-14T14:32:50;7.28;;;2.95;;
52188;SDS011;38162;45.926;13.608;2023-06-14T14:35:16;7.75;;;3.15;;
52188;SDS011;38162;45.926;13.608;2023-06-14T14:37:42;11.15;;;3.05;;
52188;SDS011;38162;45.926;13.608;2023-06-14T14:40:08;5.00;;;2.70;;
52188;SDS011;38162;45.926;13.608;2023-06-14T14:42:35;7.57;;;3.20;;
52188;SDS011;38162;45.926;13.608;2023-06-14T14:45:01;6.20;;;3.35;;
52188;SDS011;38162;45.926;13.608;2023-06-14T14:47:26;7.70;;;3.20;;
52188;SDS011;38162;45.926;13.608;2023-06-14T14:49:52;12.35;;;3.42;;
52188;SDS011;38162;45.926;13.608;2023-06-14T14:52:18;11.93;;;3.42;;